createdAt,value
2022-08-07T00:01:44.609Z,61.66
2022-08-07T00:04:15.817Z,66.70
2022-08-07T00:06:51.803Z,60.74
2022-08-07T00:09:22.592Z,55.06
2022-08-07T00:11:55.787Z,56.41
2022-08-07T00:14:31.383Z,58.53
2022-08-07T00:17:02.586Z,60.53
2022-08-07T00:19:34.047Z,61.88
2022-08-07T00:22:03.307Z,66.54
2022-08-07T00:24:31.940Z,62.19
2022-08-07T00:27:07.170Z,55.84
2022-08-07T00:29:37.099Z,56.30
2022-08-07T00:32:06.838Z,58.53
2022-08-07T00:34:35.381Z,60.46
2022-08-07T00:37:05.049Z,61.81
2022-08-07T00:39:36.559Z,66.69
2022-08-07T00:42:13.533Z,62.63
2022-08-07T00:44:42.525Z,56.20
2022-08-07T00:47:15.674Z,56.27
2022-08-07T00:50:21.453Z,58.59
2022-08-07T00:52:47.424Z,60.37
2022-08-07T00:55:17.410Z,65.44
2022-08-07T00:57:56.032Z,62.17
2022-08-07T01:00:25.228Z,55.96
2022-08-07T01:02:54.750Z,56.42
2022-08-07T01:05:24.649Z,58.62
2022-08-07T01:07:53.442Z,60.68
2022-08-07T01:10:23.965Z,61.91
2022-08-07T01:12:54.812Z,66.31
2022-08-07T01:16:00.672Z,61.72
2022-08-07T01:18:16.650Z,55.34
2022-08-07T01:20:59.647Z,56.44
2022-08-07T01:23:38.456Z,58.98
2022-08-07T01:26:14.142Z,60.71
2022-08-07T01:28:51.142Z,62.30
2022-08-07T01:31:41.762Z,66.22
2022-08-07T01:34:14.710Z,59.49
2022-08-07T01:36:52.814Z,54.93
2022-08-07T01:39:41.116Z,56.72
2022-08-07T01:42:56.988Z,59.27
2022-08-07T01:45:37.133Z,61.10
2022-08-07T01:48:29.868Z,65.48
2022-08-07T01:51:24.588Z,60.30
2022-08-07T01:54:09.571Z,55.06
2022-08-07T01:56:53.567Z,57.14
2022-08-07T01:59:36.334Z,59.45
2022-08-07T02:02:32.462Z,61.21
2022-08-07T02:05:16.049Z,65.80
2022-08-07T02:08:04.909Z,59.08
2022-08-07T02:10:42.319Z,55.01
2022-08-07T02:13:14.464Z,56.84
2022-08-07T02:15:53.111Z,59.24
2022-08-07T02:18:25.971Z,60.87
2022-08-07T02:21:00.697Z,62.24
2022-08-07T02:23:40.441Z,66.41
2022-08-07T02:26:31.267Z,60.16
2022-08-07T02:28:58.703Z,54.98
2022-08-07T02:31:33.023Z,56.56
2022-08-07T02:34:11.089Z,58.85
2022-08-07T02:36:49.030Z,60.64
2022-08-07T02:39:43.477Z,64.78
2022-08-07T02:42:10.111Z,61.01
2022-08-07T02:44:48.722Z,55.15
2022-08-07T02:47:45.225Z,56.26
2022-08-07T02:50:18.770Z,59.02
2022-08-07T02:53:03.294Z,60.50
2022-08-07T02:56:03.128Z,61.50
2022-08-07T02:58:27.249Z,66.79
2022-08-07T03:00:58.425Z,61.42
2022-08-07T03:03:50.083Z,55.85
2022-08-07T03:06:25.994Z,56.64
2022-08-07T03:09:04.917Z,59.24
2022-08-07T03:11:38.534Z,61.23
2022-08-07T03:14:10.891Z,65.61
2022-08-07T03:16:40.630Z,60.99
2022-08-07T03:19:11.645Z,55.28
2022-08-07T03:21:45.594Z,56.41
2022-08-07T03:24:27.036Z,58.54
2022-08-07T03:27:02.275Z,60.58
2022-08-07T03:29:46.025Z,65.05
2022-08-07T03:32:39.687Z,60.63
2022-08-07T03:35:26.158Z,55.07
2022-08-07T03:38:02.146Z,56.76
2022-08-07T03:40:36.491Z,59.13
2022-08-07T03:43:13.679Z,60.91
2022-08-07T03:45:47.648Z,65.70
2022-08-07T03:48:19.467Z,60.24
2022-08-07T03:50:56.001Z,54.51
2022-08-07T03:54:06.000Z,55.74
2022-08-07T03:56:33.011Z,58.08
2022-08-07T03:59:09.365Z,60.22
2022-08-07T04:01:46.814Z,61.12
2022-08-07T04:04:18.618Z,66.22
2022-08-07T04:06:52.312Z,60.62
2022-08-07T04:09:24.786Z,54.64
2022-08-07T04:12:23.771Z,55.64
2022-08-07T04:14:49.193Z,57.67
2022-08-07T04:17:20.937Z,59.95
2022-08-07T04:19:54.271Z,61.25
2022-08-07T04:22:29.283Z,65.75
2022-08-07T04:25:02.037Z,60.59
2022-08-07T04:27:35.563Z,54.05
2022-08-07T04:30:20.994Z,54.94
2022-08-07T04:32:58.537Z,56.98
2022-08-07T04:35:35.476Z,58.61
2022-08-07T04:38:11.457Z,59.32
2022-08-07T04:40:52.218Z,60.61
2022-08-07T04:44:12.690Z,65.17
2022-08-07T04:46:59.717Z,57.91
2022-08-07T04:49:37.669Z,54.17
2022-08-07T04:53:16.518Z,56.02
2022-08-07T04:58:12.788Z,58.55
2022-08-07T05:00:12.243Z,59.72
2022-08-07T05:02:26.486Z,60.87
2022-08-07T05:04:55.167Z,66.29
2022-08-07T05:07:48.241Z,59.61
2022-08-07T05:10:29.504Z,53.78
2022-08-07T05:14:44.334Z,54.88
2022-08-07T05:15:54.014Z,56.93
2022-08-07T05:18:30.174Z,58.80
2022-08-07T05:21:04.905Z,59.77
2022-08-07T05:23:43.316Z,60.56
2022-08-07T05:26:24.097Z,61.17
2022-08-07T05:29:04.371Z,66.88
2022-08-07T05:31:38.792Z,60.31
2022-08-07T05:34:15.747Z,52.90
2022-08-07T05:36:53.657Z,53.64
2022-08-07T05:40:13.513Z,55.75
2022-08-07T05:42:15.939Z,57.14
2022-08-07T05:45:14.650Z,58.98
2022-08-07T05:48:02.505Z,59.89
2022-08-07T05:50:44.556Z,60.95
2022-08-07T05:54:13.218Z,65.56
2022-08-07T05:56:05.909Z,59.48
2022-08-07T05:58:40.893Z,53.75
2022-08-07T06:01:19.720Z,54.29
2022-08-07T06:03:58.858Z,56.45
2022-08-07T06:06:35.215Z,57.52
2022-08-07T06:09:05.716Z,58.47
2022-08-07T06:11:38.524Z,58.85
2022-08-07T06:14:12.750Z,59.64
2022-08-07T06:16:56.006Z,59.55
2022-08-07T06:19:47.937Z,60.34
2022-08-07T06:22:23.753Z,65.18
2022-08-07T06:25:03.011Z,58.81
2022-08-07T06:27:44.427Z,54.00
2022-08-07T06:30:24.113Z,54.15
2022-08-07T06:33:01.575Z,55.21
2022-08-07T06:35:45.260Z,56.71
2022-08-07T06:38:20.269Z,57.58
2022-08-07T06:40:56.408Z,57.86
2022-08-07T06:43:39.472Z,58.88
2022-08-07T06:46:15.880Z,58.46
2022-08-07T06:49:04.413Z,59.42
2022-08-07T06:51:49.348Z,60.82
2022-08-07T06:55:30.203Z,60.33
2022-08-07T06:57:11.397Z,64.82
2022-08-07T07:00:14.212Z,57.45
2022-08-07T07:02:54.529Z,53.02
2022-08-07T07:06:02.440Z,53.99
2022-08-07T07:08:18.872Z,54.89
2022-08-07T07:10:56.921Z,56.49
2022-08-07T07:13:57.866Z,56.35
2022-08-07T07:16:38.927Z,56.11
2022-08-07T07:19:56.309Z,57.67
2022-08-07T07:22:33.988Z,56.96
2022-08-07T07:24:57.008Z,56.05
2022-08-07T07:28:02.178Z,56.26
2022-08-07T07:30:38.721Z,57.30
2022-08-07T07:33:12.770Z,57.84
2022-08-07T07:35:54.626Z,57.50
2022-08-07T07:38:34.860Z,56.68
2022-08-07T07:41:09.368Z,58.09
2022-08-07T07:44:14.670Z,57.62
2022-08-07T07:46:53.912Z,57.74
2022-08-07T07:50:35.391Z,57.02
2022-08-07T07:52:17.408Z,57.38
2022-08-07T07:54:51.370Z,57.01
2022-08-07T07:57:50.368Z,58.18
2022-08-07T08:00:21.032Z,58.74
2022-08-07T08:03:08.187Z,58.85
2022-08-07T08:05:50.965Z,59.03
2022-08-07T08:08:36.958Z,59.35
2022-08-07T08:11:16.468Z,60.01
2022-08-07T08:13:58.206Z,58.82
2022-08-07T08:16:38.154Z,59.29
2022-08-07T08:20:15.600Z,60.25
2022-08-07T08:22:18.021Z,59.33
2022-08-07T08:25:24.636Z,59.82
2022-08-07T08:28:03.698Z,59.81
2022-08-07T08:30:37.515Z,58.65
2022-08-07T08:33:19.120Z,58.95
2022-08-07T08:35:56.101Z,59.12
2022-08-07T08:38:30.054Z,59.34
2022-08-07T08:41:19.382Z,58.69
2022-08-07T08:44:08.853Z,58.59
2022-08-07T08:46:55.261Z,59.05
2022-08-07T08:50:05.374Z,58.26
2022-08-07T08:52:40.984Z,57.92
2022-08-07T08:55:55.458Z,57.39
2022-08-07T08:58:42.128Z,58.20
2022-08-07T09:01:43.849Z,58.18
2022-08-07T09:04:35.617Z,57.91
2022-08-07T09:07:16.941Z,58.18
2022-08-07T09:10:24.085Z,58.18
2022-08-07T09:13:09.666Z,57.97
2022-08-07T09:16:22.697Z,58.73
2022-08-07T09:19:00.700Z,57.60
2022-08-07T09:21:34.348Z,57.53
2022-08-07T09:24:55.992Z,57.29
2022-08-07T09:28:00.563Z,58.02
2022-08-07T09:30:46.342Z,56.65
2022-08-07T09:33:52.972Z,56.78
2022-08-07T09:36:35.622Z,56.26
2022-08-07T09:39:53.589Z,56.28
2022-08-07T09:42:22.954Z,55.80
2022-08-07T09:46:28.737Z,54.45
2022-08-07T09:48:15.182Z,54.71
2022-08-07T09:51:01.737Z,54.44
2022-08-07T09:53:41.288Z,54.17
2022-08-07T09:56:37.547Z,55.16
2022-08-07T09:59:35.867Z,55.22
2022-08-07T10:02:29.594Z,53.73
2022-08-07T10:05:58.067Z,53.12
2022-08-07T10:08:21.616Z,54.23
2022-08-07T10:11:17.287Z,53.74
2022-08-07T10:14:23.127Z,52.99
2022-08-07T10:17:17.991Z,53.84
2022-08-07T10:20:12.911Z,54.05
2022-08-07T10:23:12.231Z,52.64
2022-08-07T10:25:56.172Z,53.53
2022-08-07T10:28:58.210Z,52.19
2022-08-07T10:31:38.718Z,53.43
2022-08-07T10:34:37.671Z,53.64
2022-08-07T10:37:15.395Z,52.56
2022-08-07T10:40:12.644Z,52.62
2022-08-07T10:43:13.155Z,53.05
2022-08-07T10:45:58.245Z,53.65
2022-08-07T10:48:51.945Z,54.52
2022-08-07T10:51:57.344Z,53.26
2022-08-07T10:54:36.168Z,52.76
2022-08-07T10:57:34.134Z,52.52
2022-08-07T11:00:10.055Z,52.33
2022-08-07T11:03:12.628Z,48.86
2022-08-07T11:06:01.637Z,47.45
2022-08-07T11:08:41.176Z,49.08
2022-08-07T11:11:35.694Z,48.72
2022-08-07T11:14:45.761Z,48.73
2022-08-07T11:17:13.716Z,48.78
2022-08-07T11:20:03.884Z,50.57
2022-08-07T11:22:46.374Z,50.92
2022-08-07T11:25:30.849Z,49.74
2022-08-07T11:28:15.316Z,48.77
2022-08-07T11:31:11.439Z,48.38
2022-08-07T11:34:04.286Z,48.86
2022-08-07T11:36:41.267Z,49.00
2022-08-07T11:39:20.439Z,49.38
2022-08-07T11:42:03.204Z,48.02
2022-08-07T11:44:52.392Z,47.66
2022-08-07T11:47:59.364Z,48.44
2022-08-07T11:50:57.145Z,46.22
2022-08-07T11:54:09.706Z,46.32
2022-08-07T11:56:57.274Z,46.40
2022-08-07T12:00:10.852Z,45.76
2022-08-07T12:03:02.769Z,44.74
2022-08-07T12:08:42.516Z,44.44
2022-08-07T12:11:32.379Z,44.00
2022-08-07T12:14:11.729Z,44.88
2022-08-07T12:16:55.059Z,45.18
2022-08-07T12:19:56.521Z,43.19
2022-08-07T12:22:58.281Z,45.07
2022-08-07T12:26:03.422Z,43.51
2022-08-07T12:29:06.404Z,44.12
2022-08-07T12:32:19.838Z,43.17
2022-08-07T12:34:55.597Z,42.40
2022-08-07T12:37:28.391Z,44.01
2022-08-07T12:43:58.789Z,42.72
2022-08-07T12:46:15.879Z,42.30
2022-08-07T12:49:00.397Z,41.83
2022-08-07T12:52:13.652Z,42.98
2022-08-07T12:55:05.306Z,43.52
2022-08-07T12:58:01.203Z,40.53
2022-08-07T13:01:05.970Z,42.79
2022-08-07T13:04:02.167Z,42.00
2022-08-07T13:07:02.010Z,41.45
2022-08-07T13:10:38.086Z,41.06
2022-08-07T13:13:57.615Z,42.15
2022-08-07T13:16:54.444Z,41.53
2022-08-07T13:19:51.566Z,41.95
2022-08-07T13:22:42.173Z,41.52
2022-08-07T13:25:54.188Z,42.10
2022-08-07T13:28:35.993Z,40.53
2022-08-07T13:31:13.742Z,41.53
2022-08-07T13:34:34.475Z,40.53
2022-08-07T13:36:49.360Z,41.47
2022-08-07T13:40:33.117Z,42.03
2022-08-07T13:42:26.053Z,40.17
2022-08-07T13:46:07.022Z,41.48
2022-08-07T13:48:06.221Z,39.70
2022-08-07T13:50:44.854Z,39.22
2022-08-07T13:53:59.499Z,41.57
2022-08-07T13:56:36.170Z,41.12
2022-08-07T13:59:19.002Z,40.27
2022-08-07T14:02:10.458Z,39.65
2022-08-07T14:04:49.581Z,41.03
2022-08-07T14:07:23.042Z,39.94
2022-08-07T14:10:16.311Z,40.36
2022-08-07T14:12:57.081Z,39.91
2022-08-07T14:15:34.893Z,40.30
2022-08-07T14:18:23.468Z,40.10
2022-08-07T14:21:08.476Z,40.37
2022-08-07T14:24:01.273Z,39.94
2022-08-07T14:26:50.351Z,39.69
2022-08-07T14:30:05.164Z,39.74
2022-08-07T14:32:15.552Z,39.49
2022-08-07T14:34:47.408Z,39.76
2022-08-07T14:37:36.005Z,39.03
2022-08-07T14:40:26.604Z,39.77
2022-08-07T14:43:55.240Z,38.73
2022-08-07T14:45:57.617Z,39.87
2022-08-07T14:48:35.006Z,40.02
2022-08-07T14:51:15.821Z,40.02
2022-08-07T14:54:05.740Z,40.16
2022-08-07T14:56:41.307Z,39.49
2022-08-07T15:02:33.001Z,39.94
2022-08-07T15:05:01.696Z,40.00
2022-08-07T15:07:50.871Z,39.53
2022-08-07T15:10:26.274Z,39.56
2022-08-07T15:13:06.673Z,38.96
2022-08-07T15:15:42.975Z,39.79
2022-08-07T15:18:33.905Z,40.15
2022-08-07T15:21:43.920Z,40.04
2022-08-07T15:27:04.349Z,39.31
2022-08-07T15:30:10.283Z,39.92
2022-08-07T15:32:39.990Z,39.94
2022-08-07T15:36:02.062Z,40.01
2022-08-07T15:38:31.169Z,39.52
2022-08-07T15:41:24.384Z,39.31
2022-08-07T15:44:03.442Z,39.05
2022-08-07T15:46:38.429Z,39.31
2022-08-07T15:49:14.655Z,39.00
2022-08-07T15:54:40.619Z,39.41
2022-08-07T15:57:39.365Z,39.39
2022-08-07T16:00:09.402Z,38.92
2022-08-07T16:02:59.271Z,38.93
2022-08-07T16:05:31.150Z,39.38
2022-08-07T16:08:30.579Z,39.87
2022-08-07T16:11:26.371Z,38.52
2022-08-07T16:14:03.110Z,38.73
2022-08-07T16:16:51.487Z,37.66
2022-08-07T16:19:58.920Z,37.22
2022-08-07T16:22:55.328Z,37.75
2022-08-07T16:25:52.227Z,37.88
2022-08-07T16:29:18.280Z,38.12
2022-08-07T16:32:05.203Z,38.38
2022-08-07T16:34:48.120Z,37.71
2022-08-07T16:38:06.869Z,38.27
2022-08-07T16:40:32.148Z,38.89
2022-08-07T16:44:04.343Z,38.40
2022-08-07T16:47:07.779Z,38.72
2022-08-07T16:50:29.091Z,38.89
2022-08-07T16:52:55.869Z,39.93
2022-08-07T16:55:47.070Z,39.90
2022-08-07T16:58:33.650Z,40.11
2022-08-07T17:01:29.224Z,39.70
2022-08-07T17:04:12.590Z,40.23
2022-08-07T17:07:03.257Z,40.10
2022-08-07T17:10:05.316Z,40.96
2022-08-07T17:13:03.579Z,41.03
2022-08-07T17:16:09.191Z,41.50
2022-08-07T17:18:52.418Z,41.06
2022-08-07T17:21:27.351Z,42.10
2022-08-07T17:24:59.423Z,41.63
2022-08-07T17:27:36.467Z,41.50
2022-08-07T17:31:16.353Z,41.64
2022-08-07T17:34:15.212Z,42.39
2022-08-07T17:36:59.745Z,41.61
2022-08-07T17:40:03.101Z,41.17
2022-08-07T17:42:59.116Z,42.34
2022-08-07T17:45:31.815Z,43.07
2022-08-07T17:48:30.710Z,43.30
2022-08-07T17:51:16.372Z,43.52
2022-08-07T17:54:14.508Z,44.08
2022-08-07T17:57:56.678Z,44.34
2022-08-07T18:00:33.375Z,45.05
2022-08-07T18:04:03.753Z,44.88
2022-08-07T18:06:36.809Z,45.07
2022-08-07T18:09:08.666Z,45.49
2022-08-07T18:12:17.690Z,45.89
2022-08-07T18:14:45.081Z,45.21
2022-08-07T18:18:47.225Z,45.10
2022-08-07T18:21:10.002Z,45.85
2022-08-07T18:24:33.164Z,46.03
2022-08-07T18:27:08.450Z,45.79
2022-08-07T18:30:04.227Z,47.17
2022-08-07T18:32:55.177Z,45.90
2022-08-07T18:36:06.000Z,46.40
2022-08-07T18:38:57.834Z,46.15
2022-08-07T18:41:46.326Z,46.39
2022-08-07T18:44:20.648Z,46.13
2022-08-07T18:47:06.061Z,46.58
2022-08-07T18:50:19.686Z,47.16
2022-08-07T18:53:04.817Z,46.79
2022-08-07T18:55:57.105Z,47.63
2022-08-07T18:58:33.135Z,46.84
2022-08-07T19:01:06.018Z,46.82
2022-08-07T19:03:41.924Z,47.17
2022-08-07T19:06:21.635Z,47.79
2022-08-07T19:09:55.695Z,47.98
2022-08-07T19:12:20.333Z,47.73
2022-08-07T19:16:05.586Z,46.75
2022-08-07T19:18:35.215Z,47.40
2022-08-07T19:21:44.263Z,47.38
2022-08-07T19:24:30.516Z,47.36
2022-08-07T19:28:57.179Z,47.92
2022-08-07T19:31:06.042Z,48.03
2022-08-07T19:32:59.236Z,47.74
2022-08-07T19:35:33.568Z,47.57
2022-08-07T19:38:16.872Z,47.11
2022-08-07T19:40:50.745Z,47.25
2022-08-07T19:43:43.924Z,47.59
2022-08-07T19:46:26.343Z,47.24
2022-08-07T19:49:05.771Z,47.23
2022-08-07T19:51:53.054Z,47.92
2022-08-07T19:54:34.121Z,47.18
2022-08-07T19:58:04.126Z,46.80
2022-08-07T20:00:29.632Z,47.21
2022-08-07T20:03:35.592Z,46.78
2022-08-07T20:06:02.190Z,46.90
2022-08-07T20:08:36.584Z,46.89
2022-08-07T20:11:14.962Z,46.04
2022-08-07T20:13:50.184Z,46.08
2022-08-07T20:16:32.204Z,46.07
2022-08-07T20:19:11.090Z,46.03
2022-08-07T20:21:47.495Z,46.14
2022-08-07T20:24:23.688Z,46.28
2022-08-07T20:27:02.515Z,46.07
2022-08-07T20:29:57.489Z,46.55
2022-08-07T20:32:39.718Z,46.21
2022-08-07T20:35:17.816Z,46.32
2022-08-07T20:37:58.804Z,46.16
2022-08-07T20:40:34.360Z,46.40
2022-08-07T20:43:09.672Z,46.49
2022-08-07T20:46:27.590Z,46.13
2022-08-07T20:48:37.575Z,46.49
2022-08-07T20:51:09.827Z,46.53
2022-08-07T20:54:02.909Z,46.87
2022-08-07T20:56:32.250Z,46.63
2022-08-07T20:59:06.420Z,47.38
2022-08-07T21:01:58.527Z,46.71
2022-08-07T21:04:31.447Z,47.07
2022-08-07T21:07:03.990Z,47.72
2022-08-07T21:09:53.018Z,47.32
2022-08-07T21:12:31.088Z,47.57
2022-08-07T21:15:06.430Z,47.80
2022-08-07T21:18:20.466Z,47.78
2022-08-07T21:20:33.128Z,47.75
2022-08-07T21:23:09.006Z,48.33
2022-08-07T21:25:52.260Z,47.41
2022-08-07T21:29:02.427Z,47.31
2022-08-07T21:32:10.929Z,47.84
2022-08-07T21:34:51.919Z,47.90
2022-08-07T21:37:57.939Z,48.39
2022-08-07T21:40:45.860Z,48.58
2022-08-07T21:43:23.044Z,48.08
2022-08-07T21:46:08.650Z,48.94
2022-08-07T21:48:56.760Z,48.96
2022-08-07T21:51:28.281Z,49.08
2022-08-07T21:54:18.837Z,49.37
2022-08-07T21:57:08.762Z,49.96
2022-08-07T22:00:05.009Z,49.21
2022-08-07T22:02:55.276Z,49.98
2022-08-07T22:05:46.278Z,50.21
2022-08-07T22:08:20.932Z,49.42
2022-08-07T22:11:00.202Z,50.22
2022-08-07T22:13:52.442Z,49.73
2022-08-07T22:16:41.681Z,49.53
2022-08-07T22:19:31.646Z,50.33
2022-08-07T22:22:28.852Z,50.81
2022-08-07T22:25:11.141Z,50.76
2022-08-07T22:28:29.338Z,51.06
2022-08-07T22:31:59.087Z,51.21
2022-08-07T22:34:12.909Z,51.42
2022-08-07T22:36:56.487Z,51.54
2022-08-07T22:39:56.234Z,51.69
2022-08-07T22:42:31.393Z,52.02
2022-08-07T22:45:10.910Z,51.99
2022-08-07T22:48:13.618Z,52.54
2022-08-07T22:51:23.058Z,52.73
2022-08-07T22:54:22.241Z,52.65
2022-08-07T22:57:16.823Z,52.88
2022-08-07T22:59:49.991Z,53.13
2022-08-07T23:02:37.869Z,53.25
2022-08-07T23:06:15.736Z,53.35
2022-08-07T23:08:47.909Z,53.56
2022-08-07T23:11:59.038Z,53.80
2022-08-07T23:14:47.536Z,53.93
2022-08-07T23:17:41.817Z,54.13
2022-08-07T23:20:54.799Z,54.75
2022-08-07T23:24:05.740Z,54.47
2022-08-07T23:26:42.141Z,55.25
2022-08-07T23:30:38.187Z,55.42
2022-08-07T23:34:33.303Z,55.14
2022-08-07T23:36:34.410Z,55.89
2022-08-07T23:39:09.511Z,56.07
2022-08-07T23:42:08.559Z,55.88
2022-08-07T23:44:46.766Z,55.93
2022-08-07T23:47:42.307Z,55.91
2022-08-07T23:50:33.806Z,56.17
2022-08-07T23:53:51.899Z,55.99
2022-08-07T23:56:35.051Z,56.37
